createdAt,value
2019-05-20T00:01:48.599Z,13.33
2019-05-20T00:04:23.641Z,13.34
2019-05-20T00:06:56.399Z,13.35
2019-05-20T00:09:28.369Z,13.34
2019-05-20T00:12:00.975Z,13.32
2019-05-20T00:14:32.720Z,13.32
2019-05-20T00:17:10.716Z,13.34
2019-05-20T00:19:46.551Z,13.32
2019-05-20T00:22:21.582Z,13.28
2019-05-20T00:24:55.487Z,13.29
2019-05-20T00:27:27.226Z,13.31
2019-05-20T00:29:57.983Z,13.33
2019-05-20T00:32:42.321Z,13.30
2019-05-20T00:35:11.963Z,13.37
2019-05-20T01:03:03.344Z,13.17
2019-05-20T01:05:34.002Z,13.20
2019-05-20T01:08:05.036Z,13.21
2019-05-20T01:10:36.313Z,13.15
2019-05-20T01:13:07.932Z,13.19
2019-05-20T01:15:39.990Z,13.22
2019-05-20T01:18:11.625Z,13.21
2019-05-20T01:20:43.173Z,13.15
2019-05-20T01:23:20.564Z,13.14
2019-05-20T01:25:52.093Z,13.15
2019-05-20T01:28:23.384Z,13.15
2019-05-20T01:30:55.267Z,13.23
2019-05-20T01:33:26.598Z,13.18
2019-05-20T01:35:58.076Z,13.15
2019-05-20T01:38:29.393Z,13.22
2019-05-20T01:41:00.958Z,13.17
2019-05-20T01:43:32.424Z,13.18
2019-05-20T01:46:03.091Z,13.19
2019-05-20T01:48:34.687Z,13.22
2019-05-20T01:51:06.039Z,13.28
2019-05-20T01:53:37.816Z,13.22
2019-05-20T01:56:09.127Z,13.24
2019-05-20T01:58:41.036Z,13.21
2019-05-20T02:01:11.844Z,13.20
2019-05-20T02:03:43.403Z,13.13
2019-05-20T02:06:15.025Z,13.18
2019-05-20T02:08:46.299Z,13.15
2019-05-20T02:11:17.303Z,13.12
2019-05-20T02:14:01.603Z,13.10
2019-05-20T02:16:33.642Z,13.07
2019-05-20T02:19:04.685Z,13.05
2019-05-20T02:21:37.880Z,13.03
2019-05-20T02:24:09.863Z,13.02
2019-05-20T02:26:40.831Z,13.03
2019-05-20T02:29:12.434Z,13.02
2019-05-20T02:31:43.393Z,13.01
2019-05-20T02:34:14.311Z,13.03
2019-05-20T02:36:45.315Z,13.03
2019-05-20T02:39:16.303Z,13.02
2019-05-20T02:41:47.329Z,13.01
2019-05-20T02:44:19.334Z,13.00
2019-05-20T02:46:50.309Z,12.98
2019-05-20T02:49:21.674Z,12.99
2019-05-20T02:51:53.354Z,12.98
2019-05-20T02:54:24.379Z,12.99
2019-05-20T02:56:55.727Z,12.98
2019-05-20T02:59:27.152Z,12.96
2019-05-20T03:01:58.426Z,12.96
2019-05-20T03:04:29.501Z,12.96
2019-05-20T03:07:00.914Z,12.94
2019-05-20T03:09:32.347Z,12.91
2019-05-20T03:12:03.447Z,12.91
2019-05-20T03:14:35.488Z,12.91
2019-05-20T03:17:06.512Z,12.90
2019-05-20T03:19:37.550Z,12.87
2019-05-20T03:22:12.789Z,12.84
2019-05-20T03:24:44.445Z,12.78
2019-05-20T03:27:15.907Z,12.74
2019-05-20T03:29:47.205Z,12.71
2019-05-20T03:32:18.481Z,12.72
2019-05-20T03:34:58.761Z,12.67
2019-05-20T03:37:21.987Z,12.64
2019-05-20T03:39:53.018Z,12.62
2019-05-20T03:42:24.405Z,12.59
2019-05-20T03:45:04.145Z,12.58
2019-05-20T03:47:35.848Z,12.54
2019-05-20T03:50:08.063Z,12.49
2019-05-20T03:52:39.649Z,12.49
2019-05-20T03:55:11.352Z,12.47
2019-05-20T03:57:42.007Z,12.47
2019-05-20T04:00:13.429Z,12.46
2019-05-20T04:02:51.166Z,12.50
2019-05-20T04:05:22.827Z,12.50
2019-05-20T04:07:54.144Z,12.50
2019-05-20T04:10:24.747Z,12.50
2019-05-20T04:12:56.213Z,12.51
2019-05-20T04:15:27.778Z,12.55
2019-05-20T04:17:59.028Z,12.55
2019-05-20T04:20:29.973Z,12.60
2019-05-20T04:23:00.919Z,12.62
2019-05-20T04:25:32.796Z,12.67
2019-05-20T04:28:04.191Z,12.67
2019-05-20T04:30:35.450Z,12.65
2019-05-20T04:33:07.176Z,12.64
2019-05-20T04:35:38.553Z,12.66
2019-05-20T04:38:09.223Z,12.67
2019-05-20T04:40:41.070Z,12.69
2019-05-20T04:43:14.446Z,12.66
2019-05-20T04:45:45.848Z,12.64
2019-05-20T04:48:17.364Z,12.62
2019-05-20T04:50:47.992Z,12.61
2019-05-20T04:53:19.457Z,12.65
2019-05-20T04:55:51.151Z,12.67
2019-05-20T04:58:23.198Z,12.77
2019-05-20T05:00:59.334Z,12.76
2019-05-20T05:03:29.972Z,12.77
2019-05-20T05:06:02.204Z,12.74
2019-05-20T05:08:33.233Z,12.76
2019-05-20T05:11:04.214Z,12.72
2019-05-20T05:13:39.484Z,12.70
2019-05-20T05:16:11.001Z,12.70
2019-05-20T05:18:46.429Z,12.68
2019-05-20T05:21:17.782Z,12.69
2019-05-20T05:23:58.873Z,12.74
2019-05-20T05:26:21.919Z,12.73
2019-05-20T05:28:53.388Z,12.78
2019-05-20T05:31:24.409Z,12.81
2019-05-20T05:33:55.665Z,12.86
2019-05-20T05:36:27.357Z,12.86
2019-05-20T05:38:58.661Z,12.79
2019-05-20T05:41:30.017Z,12.76
2019-05-20T05:44:04.963Z,12.84
2019-05-20T05:46:36.373Z,12.78
2019-05-20T05:49:07.326Z,12.64
2019-05-20T05:51:39.346Z,12.74
2019-05-20T05:54:11.248Z,12.65
2019-05-20T05:56:43.071Z,12.69
2019-05-20T05:59:14.438Z,12.66
2019-05-20T06:01:45.592Z,12.66
2019-05-20T06:04:17.267Z,12.62
2019-05-20T06:06:48.917Z,12.64
2019-05-20T06:09:19.999Z,12.66
2019-05-20T06:11:50.994Z,12.67
2019-05-20T06:14:22.361Z,12.68
2019-05-20T06:16:54.111Z,12.69
2019-05-20T06:19:25.578Z,12.79
2019-05-20T06:21:57.188Z,12.90
2019-05-20T06:24:28.122Z,12.99
2019-05-20T06:26:59.749Z,13.18
2019-05-20T06:29:31.078Z,13.41
2019-05-20T06:32:02.816Z,13.51
2019-05-20T06:34:34.527Z,13.62
2019-05-20T06:37:07.886Z,13.71
2019-05-20T06:39:38.928Z,13.88
2019-05-20T06:42:10.145Z,13.86
2019-05-20T06:44:52.335Z,13.80
2019-05-20T06:47:14.377Z,13.87
2019-05-20T06:49:46.239Z,13.73
2019-05-20T06:52:33.259Z,13.87
2019-05-20T06:54:51.011Z,13.68
2019-05-20T06:57:23.916Z,13.54
2019-05-20T06:59:54.088Z,13.42
2019-05-20T07:02:25.209Z,13.31
2019-05-20T07:04:56.178Z,13.12
2019-05-20T07:07:28.108Z,13.17
2019-05-20T07:09:59.481Z,13.12
2019-05-20T07:12:40.694Z,13.02
2019-05-20T07:15:04.089Z,13.01
2019-05-20T07:17:35.865Z,13.02
2019-05-20T07:20:07.249Z,12.91
2019-05-20T07:22:54.633Z,12.89
2019-05-20T07:25:11.765Z,12.84
2019-05-20T07:27:43.016Z,12.90
2019-05-20T07:30:15.865Z,12.86
2019-05-20T07:32:47.521Z,12.81
2019-05-20T07:35:29.631Z,12.88
2019-05-20T07:37:51.576Z,12.86
2019-05-20T07:40:32.913Z,12.89
2019-05-20T07:43:04.619Z,12.83
2019-05-20T07:45:36.299Z,12.73
2019-05-20T07:48:07.708Z,12.87
2019-05-20T07:50:40.917Z,12.79
2019-05-20T07:53:14.325Z,12.70
2019-05-20T07:56:14.225Z,12.65
2019-05-20T07:58:50.105Z,12.65
2019-05-20T08:01:21.401Z,12.71
2019-05-20T08:03:52.683Z,12.75
2019-05-20T08:06:23.333Z,12.74
2019-05-20T08:08:54.933Z,12.83
2019-05-20T08:11:25.913Z,12.80
2019-05-20T08:13:57.606Z,12.90
2019-05-20T08:16:28.603Z,12.83
2019-05-20T08:19:00.027Z,12.79
2019-05-20T08:21:31.720Z,12.74
2019-05-20T08:24:02.744Z,12.76
2019-05-20T08:26:34.235Z,12.83
2019-05-20T08:29:05.336Z,12.88
2019-05-20T08:31:36.689Z,12.87
2019-05-20T08:34:07.972Z,12.93
2019-05-20T08:36:38.913Z,12.95
2019-05-20T08:39:10.467Z,12.97
2019-05-20T08:41:41.259Z,13.06
2019-05-20T08:44:12.312Z,13.03
2019-05-20T08:46:42.643Z,13.01
2019-05-20T08:49:13.582Z,13.05
2019-05-20T08:51:45.014Z,13.11
2019-05-20T08:54:16.655Z,13.10
2019-05-20T08:56:49.377Z,13.12
2019-05-20T08:59:20.686Z,13.16
2019-05-20T09:01:52.690Z,13.15
2019-05-20T09:04:24.399Z,13.13
2019-05-20T09:06:55.630Z,13.18
2019-05-20T09:09:27.412Z,13.17
2019-05-20T09:11:58.981Z,13.19
2019-05-20T09:14:30.488Z,13.25
2019-05-20T09:17:01.705Z,13.29
2019-05-20T09:19:33.434Z,13.29
2019-05-20T09:22:04.473Z,13.38
2019-05-20T09:24:35.165Z,13.37
2019-05-20T09:27:06.344Z,13.31
2019-05-20T09:29:38.173Z,13.31
2019-05-20T09:32:09.791Z,13.27
2019-05-20T09:34:41.940Z,13.30
2019-05-20T09:37:13.279Z,13.37
2019-05-20T09:39:44.625Z,13.38
2019-05-20T09:42:16.620Z,13.34
2019-05-20T09:44:48.326Z,13.34
2019-05-20T09:47:19.434Z,13.37
2019-05-20T09:49:51.156Z,13.32
2019-05-20T09:52:22.300Z,13.29
2019-05-20T09:54:53.586Z,13.32
2019-05-20T09:57:26.806Z,13.36
2019-05-20T09:59:58.358Z,13.30
2019-05-20T10:02:35.785Z,13.24
2019-05-20T10:05:02.982Z,13.28
2019-05-20T10:07:33.997Z,13.35
2019-05-20T10:10:04.934Z,13.30
2019-05-20T10:12:46.239Z,13.25
2019-05-20T10:15:42.990Z,13.25
2019-05-20T10:18:14.561Z,13.21
2019-05-20T10:20:45.920Z,13.20
2019-05-20T10:23:16.963Z,13.25
2019-05-20T10:25:48.403Z,13.25
2019-05-20T10:28:19.051Z,13.25
2019-05-20T10:30:50.100Z,13.24
2019-05-20T10:33:21.134Z,13.25
2019-05-20T10:35:53.054Z,13.28
2019-05-20T10:38:24.779Z,13.32
2019-05-20T10:40:55.995Z,13.34
2019-05-20T10:43:27.647Z,13.39
2019-05-20T10:45:58.619Z,13.35
2019-05-20T10:48:29.628Z,13.47
2019-05-20T10:51:01.238Z,13.49
2019-05-20T10:53:32.501Z,13.52
2019-05-20T10:56:03.461Z,13.56
2019-05-20T10:58:34.806Z,13.51
2019-05-20T11:01:07.117Z,13.49
2019-05-20T11:03:38.327Z,13.46
2019-05-20T11:06:09.177Z,13.47
2019-05-20T11:08:40.217Z,13.49
2019-05-20T11:11:14.462Z,13.48
2019-05-20T11:13:45.162Z,13.47
2019-05-20T11:16:18.557Z,13.53
2019-05-20T11:19:08.636Z,13.49
2019-05-20T11:21:39.927Z,13.51
2019-05-20T11:24:11.228Z,13.59
2019-05-20T11:26:42.427Z,13.50
2019-05-20T11:29:13.561Z,13.52
2019-05-20T11:31:45.114Z,13.67
2019-05-20T11:34:16.117Z,13.67
2019-05-20T11:36:47.468Z,13.77
2019-05-20T11:39:32.560Z,13.80
2019-05-20T11:41:53.904Z,13.79
2019-05-20T11:44:25.474Z,13.84
2019-05-20T11:46:56.746Z,13.73
2019-05-20T11:49:29.476Z,13.70
2019-05-20T11:52:01.140Z,13.77
2019-05-20T11:54:32.836Z,13.77
2019-05-20T11:57:04.179Z,13.73
2019-05-20T11:59:35.530Z,13.76
2019-05-20T12:02:06.787Z,13.86
2019-05-20T12:04:38.413Z,13.77
2019-05-20T12:07:09.089Z,13.71
2019-05-20T12:09:49.675Z,13.76
2019-05-20T12:12:13.399Z,13.80
2019-05-20T12:14:44.700Z,13.86
2019-05-20T12:17:15.663Z,13.79
2019-05-20T12:19:47.232Z,13.80
2019-05-20T12:22:18.282Z,13.72
2019-05-20T12:24:51.699Z,13.74
2019-05-20T12:27:22.697Z,13.77
2019-05-20T12:29:53.845Z,13.80
2019-05-20T12:32:24.944Z,13.89
2019-05-20T12:34:55.875Z,13.88
2019-05-20T12:37:27.454Z,13.86
2019-05-20T12:40:07.002Z,13.95
2019-05-20T12:42:32.381Z,14.02
2019-05-20T12:45:03.584Z,14.03
2019-05-20T12:47:35.645Z,14.11
2019-05-20T12:50:07.090Z,13.94
2019-05-20T12:52:38.750Z,13.93
2019-05-20T12:55:10.385Z,13.90
2019-05-20T12:57:41.453Z,14.05
2019-05-20T13:00:12.995Z,14.13
2019-05-20T13:02:43.947Z,14.23
2019-05-20T13:05:15.184Z,14.32
2019-05-20T13:07:45.480Z,14.24
2019-05-20T13:10:28.861Z,14.32
2019-05-20T13:12:49.832Z,14.25
2019-05-20T13:15:22.213Z,14.28
2019-05-20T13:17:53.250Z,14.43
2019-05-20T13:20:24.778Z,14.59
2019-05-20T13:22:56.065Z,14.87
2019-05-20T13:25:27.823Z,14.79
2019-05-20T13:27:59.145Z,15.03
2019-05-20T13:30:30.155Z,14.75
2019-05-20T13:33:01.075Z,15.12
2019-05-20T13:35:33.809Z,15.21
2019-05-20T13:38:04.755Z,15.18
2019-05-20T13:40:46.521Z,14.95
2019-05-20T13:43:09.522Z,14.99
2019-05-20T13:45:42.293Z,14.83
2019-05-20T13:48:13.554Z,14.59
2019-05-20T13:50:46.222Z,14.44
2019-05-20T13:53:19.108Z,14.39
2019-05-20T13:55:50.998Z,14.21
2019-05-20T13:58:22.060Z,13.98
2019-05-20T14:00:55.437Z,13.85
2019-05-20T14:03:26.810Z,13.89
2019-05-20T14:05:58.151Z,13.84
2019-05-20T14:08:29.671Z,13.83
2019-05-20T14:11:04.720Z,13.81
2019-05-20T14:13:34.397Z,13.57
2019-05-20T14:16:05.572Z,13.48
2019-05-20T14:18:36.616Z,13.38
2019-05-20T14:21:07.403Z,13.17
2019-05-20T14:23:38.852Z,13.12
2019-05-20T14:26:10.225Z,13.08
2019-05-20T14:28:44.044Z,12.98
2019-05-20T14:31:15.467Z,12.97
2019-05-20T14:33:47.178Z,13.01
2019-05-20T14:36:37.788Z,13.06
2019-05-20T14:38:51.555Z,13.02
2019-05-20T14:41:22.602Z,13.02
2019-05-20T14:43:55.353Z,13.01
2019-05-20T14:46:27.503Z,13.00
2019-05-20T14:49:02.177Z,12.89
2019-05-20T14:51:31.819Z,12.91
2019-05-20T14:54:03.395Z,12.91
2019-05-20T14:56:34.973Z,12.97
2019-05-20T14:59:06.105Z,12.92
2019-05-20T15:01:38.335Z,12.93
2019-05-20T15:04:09.014Z,12.98
2019-05-20T15:06:40.740Z,13.05
2019-05-20T15:09:13.571Z,13.28
2019-05-20T15:11:47.256Z,13.18
2019-05-20T15:14:18.527Z,13.15
2019-05-20T15:17:24.841Z,13.12
2019-05-20T15:19:55.957Z,13.17
2019-05-20T15:22:27.687Z,13.16
2019-05-20T15:24:59.690Z,13.17
2019-05-20T15:27:30.983Z,13.10
2019-05-20T15:30:01.857Z,13.08
2019-05-20T15:32:32.821Z,13.03
2019-05-20T15:35:17.408Z,12.98
2019-05-20T15:37:48.567Z,12.89
2019-05-20T15:40:23.179Z,12.73
2019-05-20T15:42:52.123Z,12.69
2019-05-20T15:45:23.433Z,12.70
2019-05-20T15:47:55.182Z,12.71
2019-05-20T15:50:26.539Z,12.71
2019-05-20T15:52:58.214Z,12.68
2019-05-20T15:55:29.215Z,12.71
2019-05-20T15:58:00.477Z,12.76
2019-05-20T16:00:32.504Z,12.71
2019-05-20T16:03:04.391Z,12.63
2019-05-20T16:05:35.662Z,12.60
2019-05-20T16:08:07.100Z,12.55
2019-05-20T16:10:37.735Z,12.58
2019-05-20T16:13:09.395Z,12.55
2019-05-20T16:15:40.953Z,12.58
2019-05-20T16:18:12.572Z,12.62
2019-05-20T16:20:47.462Z,12.63
2019-05-20T16:23:19.269Z,12.68
2019-05-20T16:25:50.468Z,12.67
2019-05-20T16:28:29.157Z,12.73
2019-05-20T16:31:00.432Z,12.73
2019-05-20T16:33:32.272Z,12.77
2019-05-20T16:36:03.098Z,12.77
2019-05-20T16:38:34.495Z,12.85
2019-05-20T16:41:06.962Z,12.84
2019-05-20T16:43:38.791Z,12.87
2019-05-20T16:46:10.348Z,12.99
2019-05-20T16:48:41.993Z,13.06
2019-05-20T16:51:23.630Z,13.10
2019-05-20T16:53:54.875Z,13.20
2019-05-20T16:56:26.119Z,13.16
2019-05-20T16:59:02.138Z,13.18
2019-05-20T17:01:45.582Z,13.23
2019-05-20T17:04:07.155Z,13.30
2019-05-20T17:06:39.056Z,13.48
2019-05-20T17:09:11.029Z,13.60
2019-05-20T17:11:42.429Z,13.65
2019-05-20T17:14:19.959Z,13.72
2019-05-20T17:16:51.467Z,13.70
2019-05-20T17:19:23.341Z,13.73
2019-05-20T17:21:54.955Z,13.67
2019-05-20T17:24:26.460Z,13.77
2019-05-20T17:26:58.268Z,13.71
2019-05-20T17:29:30.432Z,13.56
2019-05-20T17:32:02.257Z,13.48
2019-05-20T17:34:33.483Z,13.37
2019-05-20T17:37:05.010Z,13.35
2019-05-20T17:39:45.878Z,13.36
2019-05-20T17:42:17.729Z,13.31
2019-05-20T17:44:50.349Z,13.31
2019-05-20T17:47:21.564Z,13.26
2019-05-20T17:49:53.168Z,13.19
2019-05-20T17:52:24.823Z,13.39
2019-05-20T17:54:56.090Z,13.46
2019-05-20T17:57:27.621Z,13.64
2019-05-20T17:59:59.170Z,13.65
2019-05-20T18:02:30.064Z,13.75
2019-05-20T18:05:01.948Z,13.66
2019-05-20T18:07:33.342Z,13.66
2019-05-20T18:10:04.558Z,13.62
2019-05-20T18:12:36.133Z,13.63
2019-05-20T18:15:11.116Z,13.58
2019-05-20T18:17:49.111Z,13.57
2019-05-20T18:20:25.898Z,13.55
2019-05-20T18:23:03.698Z,13.54
2019-05-20T18:25:42.437Z,13.56
2019-05-20T18:28:14.073Z,13.49
2019-05-20T18:30:49.167Z,13.46
2019-05-20T18:33:20.152Z,13.48
2019-05-20T18:35:51.179Z,13.49
2019-05-20T18:38:27.194Z,13.46
2019-05-20T18:41:11.878Z,13.42
2019-05-20T18:43:48.930Z,13.44
2019-05-20T18:46:27.788Z,13.39
2019-05-20T18:48:59.258Z,13.37
2019-05-20T18:51:31.795Z,13.41
2019-05-20T18:54:03.375Z,13.44
2019-05-20T18:56:35.248Z,13.35
2019-05-20T18:59:06.523Z,13.36
2019-05-20T19:01:50.944Z,13.38
2019-05-20T19:04:23.135Z,13.29
2019-05-20T19:06:56.383Z,13.32
2019-05-20T19:09:32.151Z,13.28
2019-05-20T19:12:07.791Z,13.36
2019-05-20T19:14:39.239Z,13.34
2019-05-20T19:17:11.757Z,13.37
2019-05-20T19:19:43.371Z,13.27
2019-05-20T19:22:14.765Z,13.32
2019-05-20T19:24:45.798Z,13.35
2019-05-20T19:27:17.382Z,13.36
2019-05-20T19:29:49.208Z,13.34
2019-05-20T19:32:22.154Z,13.35
2019-05-20T19:34:55.393Z,13.30
2019-05-20T19:37:36.214Z,13.31
2019-05-20T19:40:10.058Z,13.33
2019-05-20T19:42:44.544Z,13.27
2019-05-20T19:45:16.352Z,13.35
2019-05-20T19:47:54.248Z,13.28
2019-05-20T19:50:25.497Z,13.29
2019-05-20T19:52:59.699Z,13.28
2019-05-20T19:55:35.259Z,13.31
2019-05-20T19:58:12.018Z,13.30
2019-05-20T20:00:44.568Z,13.28
2019-05-20T20:03:16.251Z,13.36
2019-05-20T20:05:52.951Z,13.38
2019-05-20T20:08:29.655Z,13.41
2019-05-20T20:11:05.990Z,13.38
2019-05-20T20:13:38.027Z,13.41
2019-05-20T20:16:21.736Z,13.39
2019-05-20T20:19:03.669Z,13.31
2019-05-20T20:21:39.155Z,13.29
2019-05-20T20:24:11.192Z,13.29
2019-05-20T20:26:45.849Z,13.26
2019-05-20T20:29:20.563Z,13.19
2019-05-20T20:31:54.324Z,13.22
2019-05-20T20:34:38.891Z,13.17
2019-05-20T20:37:11.383Z,13.23
2019-05-20T20:39:51.055Z,13.18
2019-05-20T20:42:23.616Z,13.13
2019-05-20T20:44:55.297Z,13.10
2019-05-20T20:47:40.875Z,13.15
2019-05-20T20:50:07.685Z,13.12
2019-05-20T20:52:50.723Z,13.18
2019-05-20T20:55:35.020Z,13.07
2019-05-20T20:58:14.538Z,13.09
2019-05-20T21:00:55.540Z,13.09
2019-05-20T21:03:29.865Z,13.05
2019-05-20T21:06:01.561Z,13.03
2019-05-20T21:08:33.655Z,13.03
2019-05-20T21:11:15.630Z,12.96
2019-05-20T21:13:47.615Z,13.01
2019-05-20T21:16:19.477Z,12.98
2019-05-20T21:18:54.367Z,12.92
2019-05-20T21:21:46.134Z,12.92
2019-05-20T21:24:17.643Z,12.97
2019-05-20T21:26:48.677Z,12.93
2019-05-20T21:29:34.242Z,12.91
2019-05-20T21:32:18.135Z,12.92
2019-05-20T21:35:05.559Z,12.91
2019-05-20T21:37:51.543Z,12.84
2019-05-20T21:40:26.419Z,12.85
2019-05-20T21:42:59.701Z,12.87
2019-05-20T21:45:30.403Z,12.87
2019-05-20T21:48:01.813Z,12.79
2019-05-20T21:50:32.870Z,12.78
2019-05-20T21:53:10.529Z,12.78
2019-05-20T21:55:42.518Z,12.78
2019-05-20T21:58:15.205Z,12.79
2019-05-20T22:00:51.375Z,12.81
2019-05-20T22:03:24.964Z,12.74
2019-05-20T22:05:59.881Z,12.73
2019-05-20T22:08:45.778Z,12.68
2019-05-20T22:11:23.416Z,12.70
2019-05-20T22:13:57.291Z,12.74
2019-05-20T22:16:36.196Z,12.66
2019-05-20T22:19:22.286Z,12.67
2019-05-20T22:22:09.403Z,12.66
2019-05-20T22:24:45.501Z,12.63
2019-05-20T22:27:23.557Z,12.61
2019-05-20T22:29:59.551Z,12.61
2019-05-20T22:32:31.410Z,12.63
2019-05-20T22:35:06.538Z,12.61
2019-05-20T22:37:40.236Z,12.58
2019-05-20T22:40:13.262Z,12.59
2019-05-20T22:42:49.639Z,12.54
2019-05-20T22:45:22.528Z,12.54
2019-05-20T22:47:55.354Z,12.51
2019-05-20T22:50:30.619Z,12.50
2019-05-20T22:53:01.797Z,12.50
2019-05-20T22:55:33.404Z,12.54
2019-05-20T22:58:08.254Z,12.50
2019-05-20T23:00:41.079Z,12.46
2019-05-20T23:03:14.349Z,12.46
2019-05-20T23:05:45.937Z,12.39
2019-05-20T23:08:22.811Z,12.35
2019-05-20T23:11:06.827Z,12.35
2019-05-20T23:13:50.774Z,12.33
2019-05-20T23:16:26.271Z,12.36
2019-05-20T23:19:07.953Z,12.31
2019-05-20T23:21:47.620Z,12.33
2019-05-20T23:24:26.419Z,12.29
2019-05-20T23:27:02.858Z,12.33
2019-05-20T23:29:41.057Z,12.35
2019-05-20T23:32:15.551Z,12.31
2019-05-20T23:34:49.046Z,12.34
2019-05-20T23:37:33.315Z,12.28
2019-05-20T23:40:05.534Z,12.26
2019-05-20T23:42:39.450Z,12.26
2019-05-20T23:45:15.871Z,12.25
2019-05-20T23:47:48.312Z,12.25
2019-05-20T23:50:25.557Z,12.22
2019-05-20T23:52:57.961Z,12.27
2019-05-20T23:55:29.791Z,12.28
2019-05-20T23:58:06.338Z,12.29
